Yessentuki, Russia
Current Conditions -  °F | °C
As of 7:00 AM on Tuesday 23 Dec 2014 (Local Time) from URMM Reporting Station
Few Clouds Few Clouds  
Wind Chill: 23°   Ceiling: Unl
Heat Index: 23°   Visibility: 6mi
Dew Point: 19°   Wind: 0mph
Humidity: 86%   Direction: NA
Pressure: 29.97"   Gusts: NA
Location:  44.04°N, 42.85°E
Report Text: URMM 230400Z 00000MPS 9999 FEW210 M05/M07 Q1015 R30/CLRD70NOSIG RMK QFE733/0978
Loading
Personal Weather Stations






























Interactive Weather Map New forecast layout! Learn more

10-Day Weather Forecast

Advertisements
Track Severe Weather on mobile